createdAt,value
2023-02-11T00:00:15.804Z,1023.859313
2023-02-11T00:05:16.128Z,1023.920202
2023-02-11T00:10:15.554Z,1023.904251
2023-02-11T00:15:16.751Z,1023.989001
2023-02-11T00:20:16.232Z,1024.146161
2023-02-11T00:25:16.851Z,1024.195428
2023-02-11T00:30:15.848Z,1024.197376
2023-02-11T00:35:16.215Z,1024.198419
2023-02-11T00:40:15.649Z,1024.258881
2023-02-11T00:45:16.063Z,1024.158690
2023-02-11T00:50:16.398Z,1024.179464
2023-02-11T00:55:16.128Z,1024.340660
2023-02-11T01:00:16.795Z,1024.401380
2023-02-11T01:05:16.093Z,1024.421384
2023-02-11T01:10:16.460Z,1024.341465
2023-02-11T01:15:15.684Z,1024.361667
2023-02-11T01:20:17.304Z,1024.401952
2023-02-11T01:25:15.710Z,1024.442008
2023-02-11T01:30:16.019Z,1024.463503
2023-02-11T01:35:17.303Z,1024.444170
2023-02-11T01:40:15.771Z,1024.504249
2023-02-11T01:45:15.736Z,1024.505302
2023-02-11T01:50:20.758Z,1024.585408
2023-02-11T01:55:16.749Z,1024.645450
2023-02-11T02:00:16.572Z,1024.726063
2023-02-11T02:05:16.196Z,1024.686997
2023-02-11T02:10:15.862Z,1024.747759
2023-02-11T02:15:17.160Z,1024.808641
2023-02-11T02:20:16.170Z,1024.848824
2023-02-11T02:25:16.038Z,1024.848885
2023-02-11T02:30:16.541Z,1024.828718
2023-02-11T02:35:15.980Z,1024.888898
2023-02-11T02:40:16.412Z,1024.928473
2023-02-11T02:45:21.413Z,1024.909234
2023-02-11T02:50:16.781Z,1025.009761
2023-02-11T02:55:16.363Z,1025.129855
2023-02-11T03:00:16.900Z,1025.110990
2023-02-11T03:05:15.725Z,1025.151754
2023-02-11T03:10:15.821Z,1025.192152
2023-02-11T03:15:16.583Z,1025.252709
2023-02-11T03:20:16.704Z,1025.293003
2023-02-11T03:25:16.555Z,1025.393793
2023-02-11T03:30:16.036Z,1025.454347
2023-02-11T03:35:15.976Z,1025.494427
2023-02-11T03:40:16.029Z,1025.494464
2023-02-11T03:45:15.621Z,1025.454500
2023-02-11T03:50:16.162Z,1025.475220
2023-02-11T03:55:15.660Z,1025.515349
2023-02-11T04:00:17.501Z,1025.475774
2023-02-11T04:05:16.623Z,1025.656364
2023-02-11T04:10:16.373Z,1025.656344
2023-02-11T04:15:16.611Z,1025.636405
2023-02-11T04:20:17.075Z,1025.736171
2023-02-11T04:25:17.105Z,1025.756675
2023-02-11T04:30:15.628Z,1025.836722
2023-02-11T04:35:16.881Z,1025.876412
2023-02-11T04:40:19.065Z,1025.976229
2023-02-11T04:45:21.179Z,1026.075897
2023-02-11T04:50:20.588Z,1026.095333
2023-02-11T04:55:27.750Z,1026.115075
2023-02-11T05:00:19.192Z,1026.114954
2023-02-11T05:05:16.761Z,1026.174854
2023-02-11T05:10:19.613Z,1026.254612
2023-02-11T05:15:21.557Z,1026.334862
2023-02-11T05:20:26.389Z,1026.354806
2023-02-11T05:25:18.961Z,1026.474898
2023-02-11T05:30:18.921Z,1026.474933
2023-02-11T05:35:21.196Z,1026.454917
2023-02-11T05:40:22.219Z,1026.394018
2023-02-11T05:45:25.849Z,1026.434336
2023-02-11T05:50:20.877Z,1026.352205
2023-02-11T05:55:18.726Z,1026.452409
2023-02-11T06:00:19.539Z,1026.533069
2023-02-11T06:05:20.151Z,1026.552116
2023-02-11T06:10:23.373Z,1026.571645
2023-02-11T06:15:22.078Z,1026.672501
2023-02-11T06:20:25.623Z,1026.808940
2023-02-11T06:25:19.234Z,1026.912348
2023-02-11T06:30:19.067Z,1026.915007
2023-02-11T06:35:17.249Z,1026.934262
2023-02-11T06:40:20.127Z,1026.995203
2023-02-11T06:45:18.605Z,1026.994025
2023-02-11T06:50:22.271Z,1026.994372
2023-02-11T06:55:20.222Z,1027.015703
2023-02-11T07:00:16.567Z,1027.056142
2023-02-11T07:05:23.867Z,1027.096335
2023-02-11T07:10:25.906Z,1027.117303
2023-02-11T07:15:19.209Z,1027.157510
2023-02-11T07:20:25.952Z,1027.156604
2023-02-11T07:25:18.559Z,1027.216098
2023-02-11T07:30:19.355Z,1027.195716
2023-02-11T07:35:26.259Z,1027.157237
2023-02-11T07:40:17.411Z,1027.278649
2023-02-11T07:45:20.205Z,1027.317013
2023-02-11T07:50:18.109Z,1027.397502
2023-02-11T07:55:25.004Z,1027.479308
2023-02-11T08:00:26.064Z,1027.479020
2023-02-11T08:05:20.330Z,1027.460160
2023-02-11T08:10:18.699Z,1027.439931
2023-02-11T08:15:19.210Z,1027.439538
2023-02-11T08:20:18.597Z,1027.419501
2023-02-11T08:25:17.472Z,1027.437671
2023-02-11T08:30:19.757Z,1027.438882
2023-02-11T08:35:19.744Z,1027.457774
2023-02-11T08:40:20.140Z,1027.338244
2023-02-11T08:45:19.775Z,1027.359602
2023-02-11T08:50:21.150Z,1027.320517
2023-02-11T08:55:17.780Z,1027.343231
2023-02-11T09:00:15.676Z,1027.363175
2023-02-11T09:05:21.191Z,1027.382288
2023-02-11T09:10:17.009Z,1027.382208
2023-02-11T09:15:20.974Z,1027.262435
2023-02-11T09:20:19.922Z,1027.280029
2023-02-11T09:25:19.923Z,1027.418533
2023-02-11T09:30:16.944Z,1027.521476
2023-02-11T09:35:17.688Z,1027.602847
2023-02-11T09:40:15.715Z,1027.682538
2023-02-11T09:45:21.341Z,1027.785151
2023-02-11T09:50:20.171Z,1027.901602
2023-02-11T09:55:24.693Z,1027.962633
2023-02-11T10:00:29.699Z,1027.982839
2023-02-11T10:05:22.607Z,1028.105030
2023-02-11T10:10:25.054Z,1028.103942
2023-02-11T10:15:19.442Z,1028.083383
2023-02-11T10:20:29.303Z,1027.946374
2023-02-11T10:25:16.170Z,1028.046070
2023-02-11T10:30:32.650Z,1027.887785
2023-02-11T10:35:26.871Z,1027.748463
2023-02-11T10:40:37.033Z,1027.668918
2023-02-11T10:45:21.395Z,1027.769411
2023-02-11T10:50:22.807Z,1027.789115
2023-02-11T10:55:20.550Z,1027.789089
2023-02-11T11:00:24.743Z,1027.889405
2023-02-11T11:05:25.953Z,1027.849416
2023-02-11T11:10:15.922Z,1027.890849
2023-02-11T11:15:15.987Z,1027.850430
2023-02-11T11:20:28.777Z,1027.849926
2023-02-11T11:25:16.899Z,1027.849186
2023-02-11T11:30:15.965Z,1027.829424
2023-02-11T11:35:16.461Z,1027.889631
2023-02-11T11:40:23.632Z,1027.951877
2023-02-11T11:45:25.219Z,1027.991114
2023-02-11T11:50:26.430Z,1027.911662
2023-02-11T11:55:26.536Z,1027.952197
2023-02-11T12:00:17.030Z,1027.932469
2023-02-11T12:05:17.618Z,1027.892705
2023-02-11T12:10:16.113Z,1027.874581
2023-02-11T12:15:24.576Z,1027.816221
2023-02-11T12:20:32.449Z,1027.836498
2023-02-11T12:25:26.096Z,1027.797496
2023-02-11T12:30:26.970Z,1027.819573
2023-02-11T12:35:24.386Z,1027.880395
2023-02-11T12:40:17.806Z,1027.899902
2023-02-11T12:45:23.321Z,1027.878806
2023-02-11T12:50:27.289Z,1027.858324
2023-02-11T12:55:27.103Z,1027.879746
2023-02-11T13:00:26.447Z,1027.899565
2023-02-11T13:05:25.836Z,1027.818861
2023-02-11T13:10:16.711Z,1027.919489
2023-02-11T13:15:19.605Z,1027.939512
2023-02-11T13:20:25.432Z,1027.919326
2023-02-11T13:25:19.977Z,1027.900964
2023-02-11T13:30:18.376Z,1027.960577
2023-02-11T13:35:34.776Z,1027.940879
2023-02-11T13:40:29.153Z,1027.922402
2023-02-11T13:45:28.889Z,1027.843191
2023-02-11T13:50:32.156Z,1027.861596
2023-02-11T13:55:23.002Z,1027.903568
2023-02-11T14:00:20.273Z,1027.866104
2023-02-11T14:05:22.982Z,1027.885344
2023-02-11T14:10:23.215Z,1027.904815
2023-02-11T14:15:29.861Z,1027.946284
2023-02-11T14:20:16.705Z,1028.065629
2023-02-11T14:25:30.150Z,1028.066007
2023-02-11T14:30:31.899Z,1028.086235
2023-02-11T14:35:16.080Z,1028.067358
2023-02-11T14:40:27.721Z,1028.168288
2023-02-11T14:45:16.286Z,1028.168436
2023-02-11T14:50:24.147Z,1028.288877
2023-02-11T14:55:17.706Z,1028.309062
2023-02-11T15:00:16.314Z,1028.347833
2023-02-11T15:05:16.844Z,1028.367901
2023-02-11T15:10:17.828Z,1028.489070
2023-02-11T15:15:18.179Z,1028.548954
2023-02-11T15:20:15.772Z,1028.609349
2023-02-11T15:25:15.599Z,1028.669329
2023-02-11T15:30:20.058Z,1028.789256
2023-02-11T15:35:21.710Z,1028.848680
2023-02-11T15:40:31.081Z,1028.848812
2023-02-11T15:45:15.729Z,1028.767962
2023-02-11T15:50:15.922Z,1028.886213
2023-02-11T15:55:18.110Z,1028.845317
2023-02-11T16:00:20.560Z,1028.844449
2023-02-11T16:05:17.174Z,1028.883225
2023-02-11T16:10:15.923Z,1028.942551
2023-02-11T16:15:17.266Z,1029.001133
2023-02-11T16:20:28.856Z,1028.980991
2023-02-11T16:25:19.042Z,1029.000231
2023-02-11T16:30:24.048Z,1028.918729
2023-02-11T16:35:18.655Z,1028.857416
2023-02-11T16:40:17.728Z,1028.855339
2023-02-11T16:45:25.636Z,1028.755143
2023-02-11T16:50:17.589Z,1028.790815
2023-02-11T16:55:16.176Z,1028.766346
2023-02-11T17:00:16.997Z,1028.743604
2023-02-11T17:05:15.789Z,1028.761502
2023-02-11T17:10:15.597Z,1028.721169
2023-02-11T17:15:15.713Z,1028.739117
2023-02-11T17:20:16.172Z,1028.777469
2023-02-11T17:25:16.508Z,1028.756851
2023-02-11T17:30:16.594Z,1028.708759
2023-02-11T17:35:15.778Z,1028.672704
2023-02-11T17:40:16.439Z,1028.670891
2023-02-11T17:45:17.248Z,1028.781993
2023-02-11T17:50:16.362Z,1028.880133
2023-02-11T17:55:16.697Z,1028.883349
2023-02-11T18:00:17.714Z,1028.783219
2023-02-11T18:05:17.670Z,1028.844665
2023-02-11T18:10:16.929Z,1028.823586
2023-02-11T18:15:17.904Z,1028.819840
2023-02-11T18:20:15.860Z,1028.858298
2023-02-11T18:25:16.945Z,1028.899902
2023-02-11T18:30:16.258Z,1028.775333
2023-02-11T18:35:16.832Z,1028.656933
2023-02-11T18:40:15.552Z,1028.660136
2023-02-11T18:45:16.164Z,1028.593212
2023-02-11T18:50:15.776Z,1028.593416
2023-02-11T18:55:23.238Z,1028.574856
2023-02-11T19:00:16.547Z,1028.655999
2023-02-11T19:05:17.682Z,1028.694960
2023-02-11T19:10:16.658Z,1028.756024
2023-02-11T19:15:17.902Z,1028.848306
2023-02-11T19:20:17.351Z,1028.845592
2023-02-11T19:25:18.138Z,1028.808879
2023-02-11T19:30:15.955Z,1028.828805
2023-02-11T19:35:16.069Z,1028.925388
2023-02-11T19:40:18.600Z,1028.889974
2023-02-11T19:45:23.230Z,1028.812787
2023-02-11T19:50:16.819Z,1028.779247
2023-02-11T19:55:17.973Z,1028.758169
2023-02-11T20:00:18.036Z,1028.596488
2023-02-11T20:05:17.236Z,1028.531634
2023-02-11T20:10:18.392Z,1028.449189
2023-02-11T20:15:16.088Z,1028.467391
2023-02-11T20:20:16.004Z,1028.408981
2023-02-11T20:25:17.192Z,1028.328739
2023-02-11T20:30:17.091Z,1028.272239
2023-02-11T20:35:16.795Z,1028.143857
2023-02-11T20:40:16.309Z,1028.128076
2023-02-11T20:45:16.626Z,1028.048853
2023-02-11T20:50:16.683Z,1028.070291
2023-02-11T20:55:16.362Z,1028.089208
2023-02-11T21:00:17.279Z,1028.169272
2023-02-11T21:05:16.465Z,1028.187910
2023-02-11T21:10:19.330Z,1028.068276
2023-02-11T21:15:16.970Z,1028.069481
2023-02-11T21:20:41.369Z,1027.971153
2023-02-11T21:25:41.870Z,1028.047817
2023-02-11T21:30:40.351Z,1027.990914
2023-02-11T21:35:23.478Z,1027.971367
2023-02-11T21:40:27.726Z,1027.970564
2023-02-11T21:45:28.325Z,1027.971133
2023-02-11T21:50:17.836Z,1027.950284
2023-02-11T21:55:31.834Z,1027.991508
2023-02-11T22:00:31.739Z,1027.852171
2023-02-11T22:05:26.450Z,1027.849553
2023-02-11T22:10:25.038Z,1027.809116
2023-02-11T22:15:27.833Z,1027.767625
2023-02-11T22:20:24.162Z,1027.767462
2023-02-11T22:25:23.330Z,1027.771707
2023-02-11T22:30:26.389Z,1027.710238
2023-02-11T22:35:36.015Z,1027.670422
2023-02-11T22:40:26.959Z,1027.629950
2023-02-11T22:45:35.858Z,1027.491919
2023-02-11T22:50:22.636Z,1027.412010
2023-02-11T22:55:19.815Z,1027.512758
2023-02-11T23:00:34.098Z,1027.493308
2023-02-11T23:05:26.002Z,1027.412789
2023-02-11T23:10:22.624Z,1027.411531
2023-02-11T23:15:15.644Z,1027.431137
2023-02-11T23:20:21.028Z,1027.490643
2023-02-11T23:25:19.832Z,1027.534136
2023-02-11T23:30:16.513Z,1027.532711
2023-02-11T23:35:21.901Z,1027.474860
2023-02-11T23:40:23.063Z,1027.474561
2023-02-11T23:45:17.381Z,1027.594595
2023-02-11T23:50:18.328Z,1027.614546
2023-02-11T23:55:19.938Z,1027.594819
